sensor_id;sensor_type;location;lat;lon;timestamp;P1;durP1;ratioP1;P2;durP2;ratioP2
55655;SDS011;41530;52.382;5.270;2022-08-11T00:00:58;1.70;;;1.38;;
55655;SDS011;41530;52.382;5.270;2022-08-11T00:03:30;1.13;;;1.02;;
55655;SDS011;41530;52.382;5.270;2022-08-11T00:06:09;2.22;;;1.02;;
55655;SDS011;41530;52.382;5.270;2022-08-11T00:08:36;5.03;;;1.40;;
55655;SDS011;41530;52.382;5.270;2022-08-11T00:11:05;2.15;;;1.25;;
55655;SDS011;41530;52.382;5.270;2022-08-11T00:13:36;2.05;;;1.10;;
55655;SDS011;41530;52.382;5.270;2022-08-11T00:16:10;3.47;;;1.30;;
55655;SDS011;41530;52.382;5.270;2022-08-11T00:18:40;2.63;;;1.10;;
55655;SDS011;41530;52.382;5.270;2022-08-11T00:21:08;4.05;;;1.58;;
55655;SDS011;41530;52.382;5.270;2022-08-11T00:23:40;1.67;;;1.02;;
55655;SDS011;41530;52.382;5.270;2022-08-11T00:26:09;1.48;;;1.10;;
55655;SDS011;41530;52.382;5.270;2022-08-11T00:28:37;5.32;;;1.27;;
55655;SDS011;41530;52.382;5.270;2022-08-11T00:31:07;1.40;;;1.30;;
55655;SDS011;41530;52.382;5.270;2022-08-11T00:33:45;1.30;;;1.20;;
55655;SDS011;41530;52.382;5.270;2022-08-11T00:36:13;3.50;;;1.48;;
55655;SDS011;41530;52.382;5.270;2022-08-11T00:38:48;3.05;;;1.20;;
55655;SDS011;41530;52.382;5.270;2022-08-11T00:47:26;2.35;;;1.48;;
55655;SDS011;41530;52.382;5.270;2022-08-11T00:50:02;4.35;;;1.30;;
55655;SDS011;41530;52.382;5.270;2022-08-11T01:01:13;4.38;;;1.17;;
55655;SDS011;41530;52.382;5.270;2022-08-11T01:47:46;3.50;;;1.33;;
55655;SDS011;41530;52.382;5.270;2022-08-11T01:59:09;2.10;;;1.30;;
55655;SDS011;41530;52.382;5.270;2022-08-11T02:01:43;2.13;;;1.38;;
55655;SDS011;41530;52.382;5.270;2022-08-11T02:07:32;2.10;;;1.30;;
55655;SDS011;41530;52.382;5.270;2022-08-11T02:13:39;2.70;;;1.63;;
55655;SDS011;41530;52.382;5.270;2022-08-11T02:18:51;3.38;;;1.50;;
55655;SDS011;41530;52.382;5.270;2022-08-11T02:21:43;3.15;;;1.50;;
55655;SDS011;41530;52.382;5.270;2022-08-11T02:24:40;3.88;;;1.27;;
55655;SDS011;41530;52.382;5.270;2022-08-11T02:27:19;4.25;;;1.60;;
55655;SDS011;41530;52.382;5.270;2022-08-11T02:29:58;2.42;;;1.30;;
55655;SDS011;41530;52.382;5.270;2022-08-11T02:32:37;2.83;;;1.80;;
55655;SDS011;41530;52.382;5.270;2022-08-11T02:35:29;2.08;;;1.35;;
55655;SDS011;41530;52.382;5.270;2022-08-11T02:38:15;3.35;;;1.75;;
55655;SDS011;41530;52.382;5.270;2022-08-11T02:43:27;2.30;;;1.70;;
55655;SDS011;41530;52.382;5.270;2022-08-11T02:46:24;1.77;;;1.67;;
55655;SDS011;41530;52.382;5.270;2022-08-11T02:54:43;2.03;;;1.50;;
55655;SDS011;41530;52.382;5.270;2022-08-11T02:57:20;1.60;;;1.42;;
55655;SDS011;41530;52.382;5.270;2022-08-11T03:05:26;2.53;;;1.92;;
55655;SDS011;41530;52.382;5.270;2022-08-11T03:10:53;3.67;;;1.33;;
55655;SDS011;41530;52.382;5.270;2022-08-11T03:28:33;4.03;;;1.80;;
55655;SDS011;41530;52.382;5.270;2022-08-11T03:31:22;2.20;;;2.00;;
55655;SDS011;41530;52.382;5.270;2022-08-11T03:34:06;3.80;;;1.63;;
55655;SDS011;41530;52.382;5.270;2022-08-11T03:40:02;4.13;;;2.00;;
55655;SDS011;41530;52.382;5.270;2022-08-11T03:51:30;3.15;;;1.92;;
55655;SDS011;41530;52.382;5.270;2022-08-11T04:00:48;3.45;;;2.20;;
55655;SDS011;41530;52.382;5.270;2022-08-11T04:06:29;1.65;;;1.52;;
55655;SDS011;41530;52.382;5.270;2022-08-11T04:27:22;3.50;;;2.00;;
55655;SDS011;41530;52.382;5.270;2022-08-11T04:39:20;2.95;;;1.83;;
55655;SDS011;41530;52.382;5.270;2022-08-11T04:42:07;3.75;;;1.58;;
55655;SDS011;41530;52.382;5.270;2022-08-11T04:48:13;1.73;;;1.42;;
55655;SDS011;41530;52.382;5.270;2022-08-11T05:01:17;3.75;;;1.88;;
55655;SDS011;41530;52.382;5.270;2022-08-11T05:07:30;2.30;;;1.58;;
55655;SDS011;41530;52.382;5.270;2022-08-11T05:13:21;2.80;;;1.70;;
55655;SDS011;41530;52.382;5.270;2022-08-11T05:16:12;2.25;;;1.70;;
55655;SDS011;41530;52.382;5.270;2022-08-11T05:19:18;2.42;;;1.80;;
55655;SDS011;41530;52.382;5.270;2022-08-11T05:22:06;9.15;;;2.65;;
55655;SDS011;41530;52.382;5.270;2022-08-11T05:28:12;5.82;;;2.47;;
55655;SDS011;41530;52.382;5.270;2022-08-11T05:31:05;3.60;;;2.55;;
55655;SDS011;41530;52.382;5.270;2022-08-11T05:33:58;2.97;;;2.60;;
55655;SDS011;41530;52.382;5.270;2022-08-11T05:36:52;4.10;;;2.70;;
55655;SDS011;41530;52.382;5.270;2022-08-11T05:39:44;7.55;;;2.60;;
55655;SDS011;41530;52.382;5.270;2022-08-11T05:42:50;6.57;;;2.92;;
55655;SDS011;41530;52.382;5.270;2022-08-11T05:45:41;4.85;;;3.28;;
55655;SDS011;41530;52.382;5.270;2022-08-11T05:48:33;5.40;;;2.50;;
55655;SDS011;41530;52.382;5.270;2022-08-11T05:51:20;3.80;;;2.70;;
55655;SDS011;41530;52.382;5.270;2022-08-11T05:54:20;3.00;;;1.98;;
55655;SDS011;41530;52.382;5.270;2022-08-11T05:57:06;4.30;;;2.15;;
55655;SDS011;41530;52.382;5.270;2022-08-11T05:59:34;2.88;;;2.03;;
55655;SDS011;41530;52.382;5.270;2022-08-11T06:02:02;2.60;;;2.20;;
55655;SDS011;41530;52.382;5.270;2022-08-11T06:04:31;5.10;;;2.10;;
55655;SDS011;41530;52.382;5.270;2022-08-11T06:07:00;4.38;;;2.45;;
55655;SDS011;41530;52.382;5.270;2022-08-11T06:09:32;6.53;;;2.15;;
55655;SDS011;41530;52.382;5.270;2022-08-11T06:12:05;6.30;;;1.70;;
55655;SDS011;41530;52.382;5.270;2022-08-11T06:14:34;3.20;;;2.00;;
55655;SDS011;41530;52.382;5.270;2022-08-11T06:17:08;7.90;;;2.55;;
55655;SDS011;41530;52.382;5.270;2022-08-11T06:19:46;3.00;;;2.17;;
55655;SDS011;41530;52.382;5.270;2022-08-11T06:22:18;3.45;;;1.98;;
55655;SDS011;41530;52.382;5.270;2022-08-11T06:24:50;2.67;;;2.20;;
55655;SDS011;41530;52.382;5.270;2022-08-11T06:27:21;3.80;;;1.98;;
55655;SDS011;41530;52.382;5.270;2022-08-11T06:29:50;3.53;;;1.92;;
55655;SDS011;41530;52.382;5.270;2022-08-11T06:32:27;3.20;;;1.92;;
55655;SDS011;41530;52.382;5.270;2022-08-11T06:35:06;3.63;;;2.13;;
55655;SDS011;41530;52.382;5.270;2022-08-11T06:37:43;5.72;;;1.88;;
55655;SDS011;41530;52.382;5.270;2022-08-11T06:40:35;4.45;;;2.03;;
55655;SDS011;41530;52.382;5.270;2022-08-11T06:43:09;3.42;;;2.00;;
55655;SDS011;41530;52.382;5.270;2022-08-11T06:48:29;7.00;;;2.03;;
55655;SDS011;41530;52.382;5.270;2022-08-11T06:50:58;3.38;;;1.85;;
55655;SDS011;41530;52.382;5.270;2022-08-11T06:53:46;2.10;;;1.48;;
55655;SDS011;41530;52.382;5.270;2022-08-11T06:56:31;3.17;;;1.40;;
55655;SDS011;41530;52.382;5.270;2022-08-11T06:59:39;1.77;;;1.30;;
55655;SDS011;41530;52.382;5.270;2022-08-11T07:02:32;6.60;;;2.25;;
55655;SDS011;41530;52.382;5.270;2022-08-11T07:05:27;3.95;;;2.45;;
55655;SDS011;41530;52.382;5.270;2022-08-11T07:14:24;2.75;;;1.67;;
55655;SDS011;41530;52.382;5.270;2022-08-11T07:17:13;3.38;;;1.75;;
55655;SDS011;41530;52.382;5.270;2022-08-11T07:19:44;3.42;;;1.67;;
55655;SDS011;41530;52.382;5.270;2022-08-11T07:22:34;4.80;;;1.83;;
55655;SDS011;41530;52.382;5.270;2022-08-11T07:25:20;2.97;;;1.90;;
55655;SDS011;41530;52.382;5.270;2022-08-11T07:28:13;3.72;;;1.70;;
55655;SDS011;41530;52.382;5.270;2022-08-11T07:31:37;2.35;;;1.40;;
55655;SDS011;41530;52.382;5.270;2022-08-11T07:37:11;4.05;;;1.88;;
55655;SDS011;41530;52.382;5.270;2022-08-11T07:39:43;5.63;;;2.15;;
55655;SDS011;41530;52.382;5.270;2022-08-11T07:42:12;6.03;;;2.10;;
55655;SDS011;41530;52.382;5.270;2022-08-11T07:44:44;3.30;;;2.10;;
55655;SDS011;41530;52.382;5.270;2022-08-11T07:47:32;3.90;;;1.50;;
55655;SDS011;41530;52.382;5.270;2022-08-11T07:50:20;1.30;;;1.20;;
55655;SDS011;41530;52.382;5.270;2022-08-11T07:55:32;1.90;;;1.00;;
55655;SDS011;41530;52.382;5.270;2022-08-11T07:58:17;3.40;;;1.20;;
55655;SDS011;41530;52.382;5.270;2022-08-11T08:01:22;2.67;;;1.25;;
55655;SDS011;41530;52.382;5.270;2022-08-11T08:04:09;6.13;;;1.23;;
55655;SDS011;41530;52.382;5.270;2022-08-11T08:06:56;1.30;;;1.20;;
55655;SDS011;41530;52.382;5.270;2022-08-11T08:09:42;1.70;;;1.33;;
55655;SDS011;41530;52.382;5.270;2022-08-11T08:12:29;7.55;;;1.23;;
55655;SDS011;41530;52.382;5.270;2022-08-11T08:15:15;1.33;;;1.10;;
55655;SDS011;41530;52.382;5.270;2022-08-11T08:18:02;5.57;;;1.35;;
55655;SDS011;41530;52.382;5.270;2022-08-11T08:20:51;2.00;;;1.20;;
55655;SDS011;41530;52.382;5.270;2022-08-11T08:23:20;4.00;;;1.63;;
55655;SDS011;41530;52.382;5.270;2022-08-11T08:26:05;3.80;;;1.20;;
55655;SDS011;41530;52.382;5.270;2022-08-11T08:28:57;4.85;;;1.40;;
55655;SDS011;41530;52.382;5.270;2022-08-11T08:31:46;4.07;;;1.27;;
55655;SDS011;41530;52.382;5.270;2022-08-11T08:34:14;2.85;;;1.17;;
55655;SDS011;41530;52.382;5.270;2022-08-11T08:36:43;1.42;;;1.30;;
55655;SDS011;41530;52.382;5.270;2022-08-11T08:39:11;1.90;;;1.25;;
55655;SDS011;41530;52.382;5.270;2022-08-11T08:41:39;5.65;;;1.33;;
55655;SDS011;41530;52.382;5.270;2022-08-11T08:44:08;3.65;;;1.30;;
55655;SDS011;41530;52.382;5.270;2022-08-11T08:46:57;1.80;;;1.20;;
55655;SDS011;41530;52.382;5.270;2022-08-11T08:49:29;3.30;;;1.50;;
55655;SDS011;41530;52.382;5.270;2022-08-11T08:52:00;2.10;;;1.10;;
55655;SDS011;41530;52.382;5.270;2022-08-11T08:54:51;2.25;;;1.20;;
55655;SDS011;41530;52.382;5.270;2022-08-11T08:57:21;5.28;;;1.30;;
55655;SDS011;41530;52.382;5.270;2022-08-11T08:59:49;1.38;;;1.27;;
55655;SDS011;41530;52.382;5.270;2022-08-11T09:02:19;1.48;;;1.20;;
55655;SDS011;41530;52.382;5.270;2022-08-11T09:05:00;1.27;;;1.17;;
55655;SDS011;41530;52.382;5.270;2022-08-11T09:07:29;2.03;;;1.30;;
55655;SDS011;41530;52.382;5.270;2022-08-11T09:12:32;2.63;;;1.08;;
55655;SDS011;41530;52.382;5.270;2022-08-11T09:15:11;4.00;;;1.00;;
55655;SDS011;41530;52.382;5.270;2022-08-11T09:17:47;1.50;;;1.00;;
55655;SDS011;41530;52.382;5.270;2022-08-11T09:20:22;1.42;;;1.20;;
55655;SDS011;41530;52.382;5.270;2022-08-11T09:22:54;1.70;;;1.42;;
55655;SDS011;41530;52.382;5.270;2022-08-11T09:26:02;1.35;;;0.93;;
55655;SDS011;41530;52.382;5.270;2022-08-11T09:28:56;1.23;;;1.00;;
55655;SDS011;41530;52.382;5.270;2022-08-11T09:31:24;2.35;;;1.33;;
55655;SDS011;41530;52.382;5.270;2022-08-11T09:33:53;2.17;;;1.17;;
55655;SDS011;41530;52.382;5.270;2022-08-11T09:36:20;2.65;;;1.17;;
55655;SDS011;41530;52.382;5.270;2022-08-11T09:41:51;1.70;;;1.10;;
55655;SDS011;41530;52.382;5.270;2022-08-11T09:44:27;1.88;;;1.13;;
55655;SDS011;41530;52.382;5.270;2022-08-11T09:47:27;1.98;;;1.00;;
55655;SDS011;41530;52.382;5.270;2022-08-11T09:49:57;2.55;;;1.08;;
55655;SDS011;41530;52.382;5.270;2022-08-11T09:52:31;2.08;;;1.23;;
55655;SDS011;41530;52.382;5.270;2022-08-11T09:55:02;1.70;;;0.93;;
55655;SDS011;41530;52.382;5.270;2022-08-11T09:57:39;1.73;;;1.15;;
55655;SDS011;41530;52.382;5.270;2022-08-11T10:00:29;2.47;;;1.00;;
55655;SDS011;41530;52.382;5.270;2022-08-11T10:02:58;2.05;;;1.05;;
55655;SDS011;41530;52.382;5.270;2022-08-11T10:05:27;1.13;;;0.90;;
55655;SDS011;41530;52.382;5.270;2022-08-11T10:08:15;1.95;;;1.13;;
55655;SDS011;41530;52.382;5.270;2022-08-11T10:10:44;1.80;;;1.10;;
55655;SDS011;41530;52.382;5.270;2022-08-11T10:13:14;1.70;;;1.17;;
55655;SDS011;41530;52.382;5.270;2022-08-11T10:16:05;1.42;;;1.17;;
55655;SDS011;41530;52.382;5.270;2022-08-11T10:18:41;0.82;;;0.80;;
55655;SDS011;41530;52.382;5.270;2022-08-11T10:21:31;1.67;;;1.00;;
55655;SDS011;41530;52.382;5.270;2022-08-11T10:24:06;1.33;;;1.23;;
55655;SDS011;41530;52.382;5.270;2022-08-11T10:26:54;2.65;;;1.35;;
55655;SDS011;41530;52.382;5.270;2022-08-11T10:29:29;2.67;;;0.90;;
55655;SDS011;41530;52.382;5.270;2022-08-11T10:32:21;1.60;;;1.20;;
55655;SDS011;41530;52.382;5.270;2022-08-11T10:35:28;1.40;;;1.00;;
55655;SDS011;41530;52.382;5.270;2022-08-11T10:37:57;2.17;;;1.08;;
55655;SDS011;41530;52.382;5.270;2022-08-11T10:40:44;1.83;;;0.95;;
55655;SDS011;41530;52.382;5.270;2022-08-11T10:43:12;1.75;;;1.30;;
55655;SDS011;41530;52.382;5.270;2022-08-11T10:45:59;1.73;;;0.90;;
55655;SDS011;41530;52.382;5.270;2022-08-11T10:48:55;0.98;;;0.85;;
55655;SDS011;41530;52.382;5.270;2022-08-11T10:51:24;1.60;;;0.80;;
55655;SDS011;41530;52.382;5.270;2022-08-11T10:54:17;1.23;;;0.82;;
55655;SDS011;41530;52.382;5.270;2022-08-11T10:57:03;1.48;;;1.17;;
55655;SDS011;41530;52.382;5.270;2022-08-11T10:59:49;1.48;;;1.00;;
55655;SDS011;41530;52.382;5.270;2022-08-11T11:02:15;2.38;;;1.02;;
55655;SDS011;41530;52.382;5.270;2022-08-11T11:07:39;1.98;;;1.08;;
55655;SDS011;41530;52.382;5.270;2022-08-11T11:10:48;2.67;;;0.90;;
55655;SDS011;41530;52.382;5.270;2022-08-11T11:13:15;1.02;;;0.80;;
55655;SDS011;41530;52.382;5.270;2022-08-11T11:16:01;1.00;;;0.88;;
55655;SDS011;41530;52.382;5.270;2022-08-11T11:18:46;1.02;;;0.90;;
55655;SDS011;41530;52.382;5.270;2022-08-11T11:21:26;2.42;;;1.00;;
55655;SDS011;41530;52.382;5.270;2022-08-11T11:27:20;1.63;;;1.05;;
55655;SDS011;41530;52.382;5.270;2022-08-11T11:35:12;2.28;;;1.10;;
55655;SDS011;41530;52.382;5.270;2022-08-11T11:37:47;0.70;;;0.70;;
55655;SDS011;41530;52.382;5.270;2022-08-11T11:40:30;1.23;;;0.90;;
55655;SDS011;41530;52.382;5.270;2022-08-11T11:42:58;1.08;;;0.98;;
55655;SDS011;41530;52.382;5.270;2022-08-11T11:45:25;1.23;;;1.00;;
55655;SDS011;41530;52.382;5.270;2022-08-11T11:47:53;2.03;;;0.77;;
55655;SDS011;41530;52.382;5.270;2022-08-11T11:50:21;2.05;;;1.00;;
55655;SDS011;41530;52.382;5.270;2022-08-11T11:55:24;1.25;;;1.02;;
55655;SDS011;41530;52.382;5.270;2022-08-11T11:57:53;1.58;;;1.00;;
55655;SDS011;41530;52.382;5.270;2022-08-11T12:00:43;1.02;;;0.90;;
55655;SDS011;41530;52.382;5.270;2022-08-11T12:03:29;1.00;;;0.90;;
55655;SDS011;41530;52.382;5.270;2022-08-11T12:05:57;0.80;;;0.80;;
55655;SDS011;41530;52.382;5.270;2022-08-11T12:08:25;1.92;;;0.98;;
55655;SDS011;41530;52.382;5.270;2022-08-11T12:10:57;1.23;;;0.90;;
55655;SDS011;41530;52.382;5.270;2022-08-11T12:13:46;1.45;;;1.00;;
55655;SDS011;41530;52.382;5.270;2022-08-11T12:16:15;1.08;;;0.95;;
55655;SDS011;41530;52.382;5.270;2022-08-11T12:21:28;0.70;;;0.70;;
55655;SDS011;41530;52.382;5.270;2022-08-11T12:23:57;1.15;;;1.00;;
55655;SDS011;41530;52.382;5.270;2022-08-11T12:26:44;3.10;;;1.00;;
55655;SDS011;41530;52.382;5.270;2022-08-11T12:29:35;0.65;;;0.65;;
55655;SDS011;41530;52.382;5.270;2022-08-11T12:32:09;1.85;;;0.90;;
55655;SDS011;41530;52.382;5.270;2022-08-11T12:34:36;1.17;;;0.80;;
55655;SDS011;41530;52.382;5.270;2022-08-11T12:37:02;1.45;;;0.85;;
55655;SDS011;41530;52.382;5.270;2022-08-11T12:39:46;0.80;;;0.80;;
55655;SDS011;41530;52.382;5.270;2022-08-11T12:42:53;0.80;;;0.80;;
55655;SDS011;41530;52.382;5.270;2022-08-11T12:45:47;1.30;;;0.93;;
55655;SDS011;41530;52.382;5.270;2022-08-11T12:48:19;1.33;;;1.02;;
55655;SDS011;41530;52.382;5.270;2022-08-11T12:51:25;0.60;;;0.60;;
55655;SDS011;41530;52.382;5.270;2022-08-11T12:57:15;2.15;;;1.10;;
55655;SDS011;41530;52.382;5.270;2022-08-11T13:00:05;0.98;;;0.85;;
55655;SDS011;41530;52.382;5.270;2022-08-11T13:02:51;0.80;;;0.63;;
55655;SDS011;41530;52.382;5.270;2022-08-11T13:05:39;1.45;;;0.80;;
55655;SDS011;41530;52.382;5.270;2022-08-11T13:08:10;1.00;;;0.90;;
55655;SDS011;41530;52.382;5.270;2022-08-11T13:10:40;1.10;;;1.00;;
55655;SDS011;41530;52.382;5.270;2022-08-11T13:13:27;0.75;;;0.75;;
55655;SDS011;41530;52.382;5.270;2022-08-11T13:16:14;0.80;;;0.80;;
55655;SDS011;41530;52.382;5.270;2022-08-11T13:18:42;1.30;;;0.77;;
55655;SDS011;41530;52.382;5.270;2022-08-11T13:21:09;0.90;;;0.90;;
55655;SDS011;41530;52.382;5.270;2022-08-11T13:23:46;0.90;;;0.90;;
55655;SDS011;41530;52.382;5.270;2022-08-11T13:26:27;4.72;;;0.80;;
55655;SDS011;41530;52.382;5.270;2022-08-11T13:29:15;1.40;;;1.30;;
55655;SDS011;41530;52.382;5.270;2022-08-11T13:31:44;1.13;;;0.80;;
55655;SDS011;41530;52.382;5.270;2022-08-11T13:34:12;1.08;;;0.85;;
55655;SDS011;41530;52.382;5.270;2022-08-11T13:36:41;1.45;;;1.10;;
55655;SDS011;41530;52.382;5.270;2022-08-11T13:39:08;0.70;;;0.70;;
55655;SDS011;41530;52.382;5.270;2022-08-11T13:41:36;1.13;;;1.00;;
55655;SDS011;41530;52.382;5.270;2022-08-11T13:44:08;0.85;;;0.70;;
55655;SDS011;41530;52.382;5.270;2022-08-11T13:46:37;2.88;;;0.80;;
55655;SDS011;41530;52.382;5.270;2022-08-11T13:49:09;1.00;;;0.90;;
55655;SDS011;41530;52.382;5.270;2022-08-11T13:51:36;1.90;;;0.90;;
55655;SDS011;41530;52.382;5.270;2022-08-11T13:54:06;2.15;;;0.75;;
55655;SDS011;41530;52.382;5.270;2022-08-11T13:56:46;2.65;;;0.70;;
55655;SDS011;41530;52.382;5.270;2022-08-11T13:59:17;1.45;;;0.73;;
55655;SDS011;41530;52.382;5.270;2022-08-11T14:02:01;1.30;;;0.70;;
55655;SDS011;41530;52.382;5.270;2022-08-11T14:04:52;0.85;;;0.73;;
55655;SDS011;41530;52.382;5.270;2022-08-11T14:07:22;0.82;;;0.82;;
55655;SDS011;41530;52.382;5.270;2022-08-11T14:10:00;0.70;;;0.70;;
55655;SDS011;41530;52.382;5.270;2022-08-11T14:12:32;1.33;;;0.90;;
55655;SDS011;41530;52.382;5.270;2022-08-11T14:15:20;0.85;;;0.85;;
55655;SDS011;41530;52.382;5.270;2022-08-11T14:17:55;1.58;;;0.93;;
55655;SDS011;41530;52.382;5.270;2022-08-11T14:20:29;6.80;;;0.85;;
55655;SDS011;41530;52.382;5.270;2022-08-11T14:23:16;0.90;;;0.90;;
55655;SDS011;41530;52.382;5.270;2022-08-11T14:25:45;1.25;;;1.00;;
55655;SDS011;41530;52.382;5.270;2022-08-11T14:28:32;3.40;;;0.93;;
55655;SDS011;41530;52.382;5.270;2022-08-11T14:31:10;2.25;;;1.10;;
55655;SDS011;41530;52.382;5.270;2022-08-11T14:33:40;1.15;;;0.93;;
55655;SDS011;41530;52.382;5.270;2022-08-11T14:36:30;2.67;;;1.00;;
55655;SDS011;41530;52.382;5.270;2022-08-11T14:39:06;2.08;;;1.27;;
55655;SDS011;41530;52.382;5.270;2022-08-11T14:41:38;0.95;;;0.88;;
55655;SDS011;41530;52.382;5.270;2022-08-11T14:44:38;3.22;;;0.77;;
55655;SDS011;41530;52.382;5.270;2022-08-11T14:47:26;1.20;;;0.93;;
55655;SDS011;41530;52.382;5.270;2022-08-11T14:49:56;4.75;;;0.93;;
55655;SDS011;41530;52.382;5.270;2022-08-11T14:52:38;1.40;;;1.17;;
55655;SDS011;41530;52.382;5.270;2022-08-11T14:55:15;1.55;;;1.20;;
55655;SDS011;41530;52.382;5.270;2022-08-11T14:58:01;1.67;;;1.00;;
55655;SDS011;41530;52.382;5.270;2022-08-11T15:00:29;3.20;;;1.30;;
55655;SDS011;41530;52.382;5.270;2022-08-11T15:02:57;3.35;;;1.10;;
55655;SDS011;41530;52.382;5.270;2022-08-11T15:05:38;1.52;;;1.00;;
55655;SDS011;41530;52.382;5.270;2022-08-11T15:08:19;2.40;;;1.27;;
55655;SDS011;41530;52.382;5.270;2022-08-11T15:11:07;1.20;;;1.00;;
55655;SDS011;41530;52.382;5.270;2022-08-11T15:13:55;1.33;;;1.13;;
55655;SDS011;41530;52.382;5.270;2022-08-11T15:16:25;2.38;;;0.80;;
55655;SDS011;41530;52.382;5.270;2022-08-11T15:19:12;1.85;;;1.20;;
55655;SDS011;41530;52.382;5.270;2022-08-11T15:21:39;4.80;;;1.20;;
55655;SDS011;41530;52.382;5.270;2022-08-11T15:24:25;1.15;;;1.02;;
55655;SDS011;41530;52.382;5.270;2022-08-11T15:26:56;2.35;;;1.17;;
55655;SDS011;41530;52.382;5.270;2022-08-11T15:29:43;3.33;;;0.95;;
55655;SDS011;41530;52.382;5.270;2022-08-11T15:32:30;2.35;;;1.30;;
55655;SDS011;41530;52.382;5.270;2022-08-11T15:35:18;1.50;;;1.13;;
55655;SDS011;41530;52.382;5.270;2022-08-11T15:38:05;4.13;;;1.63;;
55655;SDS011;41530;52.382;5.270;2022-08-11T15:40:37;3.05;;;1.52;;
55655;SDS011;41530;52.382;5.270;2022-08-11T15:43:28;12.10;;;1.30;;
55655;SDS011;41530;52.382;5.270;2022-08-11T15:46:25;7.25;;;1.40;;
55655;SDS011;41530;52.382;5.270;2022-08-11T15:48:58;4.28;;;1.48;;
55655;SDS011;41530;52.382;5.270;2022-08-11T15:51:35;1.67;;;1.42;;
55655;SDS011;41530;52.382;5.270;2022-08-11T15:54:12;2.10;;;1.30;;
55655;SDS011;41530;52.382;5.270;2022-08-11T15:56:43;2.63;;;1.20;;
55655;SDS011;41530;52.382;5.270;2022-08-11T15:59:13;4.93;;;1.45;;
55655;SDS011;41530;52.382;5.270;2022-08-11T16:02:10;3.47;;;1.45;;
55655;SDS011;41530;52.382;5.270;2022-08-11T16:04:57;3.50;;;1.70;;
55655;SDS011;41530;52.382;5.270;2022-08-11T16:07:28;2.85;;;1.50;;
55655;SDS011;41530;52.382;5.270;2022-08-11T16:10:05;2.72;;;1.38;;
55655;SDS011;41530;52.382;5.270;2022-08-11T16:12:47;1.90;;;1.42;;
55655;SDS011;41530;52.382;5.270;2022-08-11T16:15:50;4.57;;;1.48;;
55655;SDS011;41530;52.382;5.270;2022-08-11T16:18:47;2.58;;;1.42;;
55655;SDS011;41530;52.382;5.270;2022-08-11T16:21:20;2.58;;;1.70;;
55655;SDS011;41530;52.382;5.270;2022-08-11T16:23:59;3.33;;;1.13;;
55655;SDS011;41530;52.382;5.270;2022-08-11T16:26:28;2.38;;;1.48;;
55655;SDS011;41530;52.382;5.270;2022-08-11T16:29:16;3.60;;;1.23;;
55655;SDS011;41530;52.382;5.270;2022-08-11T16:31:44;3.60;;;1.40;;
55655;SDS011;41530;52.382;5.270;2022-08-11T16:34:32;4.93;;;1.70;;
55655;SDS011;41530;52.382;5.270;2022-08-11T16:37:19;2.42;;;1.33;;
55655;SDS011;41530;52.382;5.270;2022-08-11T16:40:07;3.15;;;1.23;;
55655;SDS011;41530;52.382;5.270;2022-08-11T16:42:35;1.52;;;1.10;;
55655;SDS011;41530;52.382;5.270;2022-08-11T16:45:37;1.73;;;1.50;;
55655;SDS011;41530;52.382;5.270;2022-08-11T16:48:26;5.72;;;2.20;;
55655;SDS011;41530;52.382;5.270;2022-08-11T16:51:03;5.97;;;4.18;;
55655;SDS011;41530;52.382;5.270;2022-08-11T16:53:31;5.95;;;2.40;;
55655;SDS011;41530;52.382;5.270;2022-08-11T16:56:18;5.63;;;2.78;;
55655;SDS011;41530;52.382;5.270;2022-08-11T16:58:53;4.15;;;2.20;;
55655;SDS011;41530;52.382;5.270;2022-08-11T17:01:41;3.47;;;1.88;;
55655;SDS011;41530;52.382;5.270;2022-08-11T17:04:27;2.67;;;1.80;;
55655;SDS011;41530;52.382;5.270;2022-08-11T17:07:15;4.10;;;2.53;;
55655;SDS011;41530;52.382;5.270;2022-08-11T17:10:34;4.00;;;1.88;;
55655;SDS011;41530;52.382;5.270;2022-08-11T17:13:30;7.07;;;3.42;;
55655;SDS011;41530;52.382;5.270;2022-08-11T17:16:02;11.48;;;4.07;;
55655;SDS011;41530;52.382;5.270;2022-08-11T17:18:39;3.22;;;2.03;;
55655;SDS011;41530;52.382;5.270;2022-08-11T17:23:42;2.78;;;2.13;;
55655;SDS011;41530;52.382;5.270;2022-08-11T17:26:17;4.22;;;2.92;;
55655;SDS011;41530;52.382;5.270;2022-08-11T17:28:47;3.08;;;2.72;;
55655;SDS011;41530;52.382;5.270;2022-08-11T17:31:16;4.07;;;2.95;;
55655;SDS011;41530;52.382;5.270;2022-08-11T17:34:04;5.97;;;2.80;;
55655;SDS011;41530;52.382;5.270;2022-08-11T17:36:55;2.60;;;2.30;;
55655;SDS011;41530;52.382;5.270;2022-08-11T17:39:24;7.85;;;2.63;;
55655;SDS011;41530;52.382;5.270;2022-08-11T17:41:54;3.80;;;2.60;;
55655;SDS011;41530;52.382;5.270;2022-08-11T17:44:40;3.75;;;2.08;;
55655;SDS011;41530;52.382;5.270;2022-08-11T17:47:27;3.88;;;2.25;;
55655;SDS011;41530;52.382;5.270;2022-08-11T17:50:14;2.92;;;1.85;;
55655;SDS011;41530;52.382;5.270;2022-08-11T17:52:44;3.50;;;1.85;;
55655;SDS011;41530;52.382;5.270;2022-08-11T17:55:31;8.73;;;2.00;;
55655;SDS011;41530;52.382;5.270;2022-08-11T17:58:19;1.67;;;1.33;;
55655;SDS011;41530;52.382;5.270;2022-08-11T18:01:05;2.95;;;1.50;;
55655;SDS011;41530;52.382;5.270;2022-08-11T18:03:36;1.85;;;1.60;;
55655;SDS011;41530;52.382;5.270;2022-08-11T18:06:06;5.15;;;1.30;;
55655;SDS011;41530;52.382;5.270;2022-08-11T18:08:43;2.03;;;1.15;;
55655;SDS011;41530;52.382;5.270;2022-08-11T18:11:31;10.63;;;1.38;;
55655;SDS011;41530;52.382;5.270;2022-08-11T18:17:22;4.05;;;1.20;;
55655;SDS011;41530;52.382;5.270;2022-08-11T18:20:07;2.03;;;1.38;;
55655;SDS011;41530;52.382;5.270;2022-08-11T18:25:40;2.75;;;1.20;;
55655;SDS011;41530;52.382;5.270;2022-08-11T18:28:29;1.98;;;1.10;;
55655;SDS011;41530;52.382;5.270;2022-08-11T18:31:21;5.28;;;1.50;;
55655;SDS011;41530;52.382;5.270;2022-08-11T18:34:09;2.83;;;1.50;;
55655;SDS011;41530;52.382;5.270;2022-08-11T18:37:00;3.58;;;1.40;;
55655;SDS011;41530;52.382;5.270;2022-08-11T18:39:55;4.47;;;1.25;;
55655;SDS011;41530;52.382;5.270;2022-08-11T18:42:46;3.55;;;1.30;;
55655;SDS011;41530;52.382;5.270;2022-08-11T18:45:33;5.95;;;1.30;;
55655;SDS011;41530;52.382;5.270;2022-08-11T18:48:33;3.78;;;1.30;;
55655;SDS011;41530;52.382;5.270;2022-08-11T18:51:20;3.33;;;1.25;;
55655;SDS011;41530;52.382;5.270;2022-08-11T18:54:07;2.28;;;1.10;;
55655;SDS011;41530;52.382;5.270;2022-08-11T18:56:56;6.82;;;1.60;;
55655;SDS011;41530;52.382;5.270;2022-08-11T18:59:44;4.50;;;1.35;;
55655;SDS011;41530;52.382;5.270;2022-08-11T19:02:33;3.00;;;1.38;;
55655;SDS011;41530;52.382;5.270;2022-08-11T19:05:21;3.03;;;1.42;;
55655;SDS011;41530;52.382;5.270;2022-08-11T19:08:28;5.63;;;1.50;;
55655;SDS011;41530;52.382;5.270;2022-08-11T19:11:15;2.05;;;1.20;;
55655;SDS011;41530;52.382;5.270;2022-08-11T19:14:08;5.35;;;1.60;;
55655;SDS011;41530;52.382;5.270;2022-08-11T19:16:56;2.92;;;1.30;;
55655;SDS011;41530;52.382;5.270;2022-08-11T19:20:04;4.03;;;1.20;;
55655;SDS011;41530;52.382;5.270;2022-08-11T19:22:53;3.42;;;1.30;;
55655;SDS011;41530;52.382;5.270;2022-08-11T19:25:41;4.03;;;1.50;;
55655;SDS011;41530;52.382;5.270;2022-08-11T19:28:28;3.75;;;1.48;;
55655;SDS011;41530;52.382;5.270;2022-08-11T19:31:14;3.13;;;1.05;;
55655;SDS011;41530;52.382;5.270;2022-08-11T19:34:00;4.30;;;1.40;;
55655;SDS011;41530;52.382;5.270;2022-08-11T19:36:45;1.98;;;1.33;;
55655;SDS011;41530;52.382;5.270;2022-08-11T19:39:31;4.38;;;1.50;;
55655;SDS011;41530;52.382;5.270;2022-08-11T19:42:18;3.97;;;1.45;;
55655;SDS011;41530;52.382;5.270;2022-08-11T19:45:05;3.10;;;1.00;;
55655;SDS011;41530;52.382;5.270;2022-08-11T19:50:56;2.92;;;1.23;;
55655;SDS011;41530;52.382;5.270;2022-08-11T19:53:42;2.53;;;1.10;;
55655;SDS011;41530;52.382;5.270;2022-08-11T19:56:28;5.72;;;1.40;;
55655;SDS011;41530;52.382;5.270;2022-08-11T19:59:17;1.48;;;0.95;;
55655;SDS011;41530;52.382;5.270;2022-08-11T20:02:04;4.22;;;1.30;;